createdAt,value
2023-01-23T00:01:12.637Z,14.85
2023-01-23T00:03:40.085Z,12.32
2023-01-23T00:06:10.410Z,15.82
2023-01-23T00:08:37.123Z,15.02
2023-01-23T00:11:06.151Z,13.40
2023-01-23T00:13:34.214Z,17.17
2023-01-23T00:16:10.168Z,12.90
2023-01-23T00:18:37.052Z,15.43
2023-01-23T00:21:09.027Z,14.70
2023-01-23T00:23:36.456Z,15.98
2023-01-23T00:26:07.800Z,14.73
2023-01-23T00:28:35.205Z,16.45
2023-01-23T00:31:06.429Z,13.80
2023-01-23T00:33:33.793Z,14.88
2023-01-23T00:36:01.862Z,14.90
2023-01-23T00:38:31.635Z,14.93
2023-01-23T00:40:58.677Z,14.02
2023-01-23T00:43:25.617Z,14.60
2023-01-23T00:45:52.353Z,16.98
2023-01-23T00:48:19.718Z,17.95
2023-01-23T00:50:47.293Z,18.25
2023-01-23T00:53:14.959Z,15.43
2023-01-23T00:55:42.381Z,17.70
2023-01-23T00:58:10.027Z,15.85
2023-01-23T01:00:38.309Z,15.25
2023-01-23T01:03:05.641Z,16.42
2023-01-23T01:05:32.773Z,18.70
2023-01-23T01:07:59.853Z,15.73
2023-01-23T01:10:29.556Z,18.23
2023-01-23T01:12:57.746Z,14.52
2023-01-23T01:15:25.770Z,15.50
2023-01-23T01:17:55.383Z,13.77
2023-01-23T01:20:23.952Z,15.75
2023-01-23T01:22:51.469Z,16.15
2023-01-23T01:25:18.488Z,13.13
2023-01-23T01:27:45.486Z,15.68
2023-01-23T01:30:13.860Z,15.00
2023-01-23T01:32:42.002Z,16.20
2023-01-23T01:35:09.948Z,15.35
2023-01-23T01:37:38.759Z,13.95
2023-01-23T01:40:07.723Z,13.75
2023-01-23T01:42:43.908Z,16.58
2023-01-23T01:45:48.141Z,16.00
2023-01-23T01:48:15.488Z,13.18
2023-01-23T01:50:43.309Z,13.95
2023-01-23T01:53:11.182Z,14.35
2023-01-23T01:55:38.324Z,15.52
2023-01-23T01:58:05.356Z,14.35
2023-01-23T02:00:32.287Z,14.15
2023-01-23T02:03:01.156Z,14.57
2023-01-23T02:05:38.181Z,14.80
2023-01-23T02:08:17.338Z,15.57
2023-01-23T02:10:46.885Z,14.77
2023-01-23T02:13:36.969Z,15.60
2023-01-23T02:16:06.838Z,15.15
2023-01-23T02:18:35.388Z,13.48
2023-01-23T02:21:07.715Z,14.85
2023-01-23T02:23:46.819Z,14.15
2023-01-23T02:26:28.659Z,13.57
2023-01-23T02:28:56.195Z,14.20
2023-01-23T02:31:27.274Z,14.63
2023-01-23T02:33:59.157Z,12.90
2023-01-23T02:36:30.147Z,13.30
2023-01-23T02:39:06.393Z,12.48
2023-01-23T02:41:40.048Z,13.93
2023-01-23T02:44:21.231Z,11.02
2023-01-23T02:46:53.800Z,12.90
2023-01-23T02:49:22.132Z,11.63
2023-01-23T02:51:50.509Z,12.75
2023-01-23T02:54:18.637Z,13.43
2023-01-23T02:56:45.687Z,13.20
2023-01-23T02:59:31.269Z,11.57
2023-01-23T03:01:58.808Z,13.82
2023-01-23T03:04:26.191Z,12.43
2023-01-23T03:06:53.044Z,12.95
2023-01-23T03:09:20.072Z,14.25
2023-01-23T03:11:47.483Z,13.48
2023-01-23T03:14:18.156Z,14.15
2023-01-23T03:16:50.071Z,14.23
2023-01-23T03:19:19.001Z,13.15
2023-01-23T03:21:46.079Z,13.45
2023-01-23T03:24:14.161Z,13.88
2023-01-23T03:26:43.133Z,15.00
2023-01-23T03:29:42.683Z,13.02
2023-01-23T03:32:12.028Z,14.10
2023-01-23T03:34:39.957Z,11.43
2023-01-23T03:37:10.318Z,16.33
2023-01-23T03:39:56.940Z,15.93
2023-01-23T03:42:25.191Z,13.13
2023-01-23T03:44:53.794Z,13.90
2023-01-23T03:47:26.339Z,15.02
2023-01-23T03:52:21.336Z,16.02
2023-01-23T03:54:48.358Z,15.70
2023-01-23T03:57:15.465Z,16.90
2023-01-23T03:59:48.664Z,14.52
2023-01-23T04:02:19.972Z,15.98
2023-01-23T04:04:46.964Z,16.23
2023-01-23T04:07:13.705Z,14.80
2023-01-23T04:09:42.840Z,14.38
2023-01-23T04:12:09.860Z,14.77
2023-01-23T04:14:40.835Z,16.92
2023-01-23T04:17:08.941Z,18.98
2023-01-23T04:19:36.086Z,14.85
2023-01-23T04:22:03.275Z,14.85
2023-01-23T04:24:35.582Z,13.48
2023-01-23T04:27:02.694Z,16.55
2023-01-23T04:29:29.848Z,16.90
2023-01-23T04:31:57.650Z,15.07
2023-01-23T04:34:24.506Z,16.75
2023-01-23T04:36:55.945Z,17.40
2023-01-23T04:39:23.609Z,16.85
2023-01-23T04:41:51.133Z,16.38
2023-01-23T04:44:38.211Z,16.70
2023-01-23T04:47:25.299Z,18.13
2023-01-23T04:49:52.289Z,15.38
2023-01-23T04:52:19.436Z,15.63
2023-01-23T04:54:53.757Z,14.18
2023-01-23T04:57:21.126Z,18.02
2023-01-23T04:59:52.467Z,18.50
2023-01-23T05:02:21.403Z,14.95
2023-01-23T05:04:48.859Z,16.98
2023-01-23T05:07:15.997Z,17.75
2023-01-23T05:09:54.763Z,16.58
2023-01-23T05:12:22.432Z,17.38
2023-01-23T05:14:49.387Z,16.17
2023-01-23T05:17:16.564Z,16.05
2023-01-23T05:19:51.039Z,16.90
2023-01-23T05:22:18.159Z,16.02
2023-01-23T05:24:45.474Z,15.95
2023-01-23T05:27:12.839Z,15.48
2023-01-23T05:29:42.348Z,16.15
2023-01-23T05:32:14.930Z,16.10
2023-01-23T05:34:58.717Z,16.27
2023-01-23T05:37:29.324Z,15.35
2023-01-23T05:40:00.658Z,15.25
2023-01-23T05:42:47.792Z,12.73
2023-01-23T05:45:37.051Z,12.63
2023-01-23T05:48:11.009Z,13.82
2023-01-23T05:50:38.293Z,10.32
2023-01-23T05:53:05.360Z,13.23
2023-01-23T05:55:33.296Z,13.20
2023-01-23T05:58:00.507Z,9.38
2023-01-23T06:00:33.562Z,10.20
2023-01-23T06:03:21.022Z,10.55
2023-01-23T06:06:09.110Z,10.35
2023-01-23T06:08:35.981Z,9.23
2023-01-23T06:11:03.733Z,9.45
2023-01-23T06:13:30.779Z,10.00
2023-01-23T06:15:59.108Z,8.98
2023-01-23T06:18:26.839Z,9.68
2023-01-23T06:20:59.140Z,9.48
2023-01-23T06:23:26.345Z,10.43
2023-01-23T06:25:53.537Z,9.38
2023-01-23T06:28:20.401Z,8.32
2023-01-23T06:30:48.374Z,8.00
2023-01-23T06:33:26.627Z,9.57
2023-01-23T06:36:00.664Z,9.38
2023-01-23T06:38:28.363Z,8.13
2023-01-23T06:40:57.062Z,9.70
2023-01-23T06:43:35.012Z,9.40
2023-01-23T06:46:03.224Z,9.38
2023-01-23T06:48:30.659Z,10.02
2023-01-23T06:51:02.557Z,10.65
2023-01-23T06:53:30.449Z,9.57
2023-01-23T06:56:05.926Z,12.20
2023-01-23T06:58:35.134Z,10.38
2023-01-23T07:01:10.592Z,11.10
2023-01-23T07:04:03.450Z,12.98
2023-01-23T07:06:31.508Z,12.43
2023-01-23T07:08:58.773Z,12.30
2023-01-23T07:11:25.779Z,14.88
2023-01-23T07:13:52.858Z,12.52
2023-01-23T07:16:20.516Z,13.02
2023-01-23T07:18:47.425Z,12.60
2023-01-23T07:21:14.490Z,12.57
2023-01-23T07:23:41.321Z,13.98
2023-01-23T07:26:09.538Z,11.43
2023-01-23T07:28:39.578Z,13.27
2023-01-23T07:31:07.164Z,8.68
2023-01-23T07:33:33.952Z,10.75
2023-01-23T07:36:00.850Z,11.73
2023-01-23T07:38:28.033Z,11.98
2023-01-23T07:40:58.497Z,10.70
2023-01-23T07:43:26.155Z,11.75
2023-01-23T07:45:53.725Z,12.07
2023-01-23T07:48:20.636Z,11.63
2023-01-23T07:50:48.662Z,11.40
2023-01-23T07:53:15.530Z,11.10
2023-01-23T07:55:42.236Z,14.82
2023-01-23T07:58:09.064Z,14.55
2023-01-23T08:00:35.980Z,13.70
2023-01-23T08:03:03.244Z,10.40
2023-01-23T08:05:30.087Z,9.90
2023-01-23T08:08:12.013Z,10.18
2023-01-23T08:10:39.960Z,9.98
2023-01-23T08:13:07.239Z,9.35
2023-01-23T08:15:34.153Z,8.77
2023-01-23T08:18:00.953Z,10.70
2023-01-23T08:20:27.852Z,9.70
2023-01-23T08:22:54.642Z,7.30
2023-01-23T08:25:21.580Z,10.05
2023-01-23T08:27:48.379Z,10.57
2023-01-23T08:30:15.900Z,9.15
2023-01-23T08:32:42.978Z,9.13
2023-01-23T08:35:09.939Z,10.50
2023-01-23T08:37:37.908Z,9.10
2023-01-23T08:40:05.482Z,11.40
2023-01-23T08:42:32.473Z,10.85
2023-01-23T08:44:59.330Z,10.27
2023-01-23T08:47:26.310Z,8.63
2023-01-23T08:49:53.092Z,11.07
2023-01-23T08:52:19.867Z,11.98
2023-01-23T08:54:46.753Z,11.27
2023-01-23T08:57:13.609Z,12.32
2023-01-23T08:59:42.508Z,11.82
2023-01-23T09:02:12.671Z,12.90
2023-01-23T09:04:39.573Z,13.27
2023-01-23T09:07:06.375Z,11.60
2023-01-23T09:09:33.683Z,11.80
2023-01-23T09:12:00.415Z,11.23
2023-01-23T09:14:27.220Z,11.73
2023-01-23T09:16:54.362Z,11.73
2023-01-23T09:19:21.033Z,11.50
2023-01-23T09:21:47.939Z,13.35
2023-01-23T09:24:14.621Z,12.25
2023-01-23T09:26:41.557Z,11.23
2023-01-23T09:29:08.369Z,11.82
2023-01-23T09:31:35.171Z,12.45
2023-01-23T09:34:03.336Z,11.32
2023-01-23T09:36:42.086Z,10.52
2023-01-23T09:39:09.984Z,11.80
2023-01-23T09:41:39.144Z,12.43
2023-01-23T09:44:20.737Z,11.85
2023-01-23T09:46:56.396Z,10.70
2023-01-23T09:49:29.714Z,11.20
2023-01-23T09:52:01.502Z,12.13
2023-01-23T09:54:44.245Z,11.15
2023-01-23T09:57:15.830Z,11.68
2023-01-23T09:59:58.659Z,10.38
2023-01-23T10:02:27.419Z,11.93
2023-01-23T10:04:54.578Z,10.35
2023-01-23T10:07:35.400Z,8.85
2023-01-23T10:10:21.042Z,9.18
2023-01-23T10:13:20.697Z,10.00
2023-01-23T10:16:10.163Z,12.07
2023-01-23T10:18:43.324Z,11.88
2023-01-23T10:21:37.694Z,11.27
2023-01-23T10:24:45.353Z,12.93
2023-01-23T10:27:34.177Z,7.90
2023-01-23T10:30:20.491Z,9.13
2023-01-23T10:33:10.227Z,8.88
2023-01-23T10:35:47.506Z,8.43
2023-01-23T10:38:27.360Z,8.88
2023-01-23T10:41:13.123Z,8.23
2023-01-23T10:43:42.410Z,9.10
2023-01-23T10:46:15.591Z,8.57
2023-01-23T10:48:50.481Z,8.20
2023-01-23T10:51:35.474Z,8.20
2023-01-23T10:54:31.231Z,8.02
2023-01-23T10:57:22.371Z,10.63
2023-01-23T10:59:54.103Z,10.75
2023-01-23T11:02:28.901Z,8.05
2023-01-23T11:04:56.620Z,9.30
2023-01-23T11:07:25.872Z,10.10
2023-01-23T11:10:20.648Z,8.23
2023-01-23T11:12:49.812Z,8.63
2023-01-23T11:15:32.565Z,9.32
2023-01-23T11:18:01.137Z,10.07
2023-01-23T11:20:40.045Z,9.98
2023-01-23T11:23:10.923Z,8.38
2023-01-23T11:25:40.837Z,8.95
2023-01-23T11:28:24.884Z,9.50
2023-01-23T11:31:14.579Z,7.75
2023-01-23T11:34:05.514Z,7.28
2023-01-23T11:36:47.725Z,7.22
2023-01-23T11:39:26.797Z,8.63
2023-01-23T11:41:53.652Z,8.45
2023-01-23T11:44:24.420Z,7.70
2023-01-23T11:47:04.791Z,7.57
2023-01-23T11:49:53.864Z,7.68
2023-01-23T11:52:34.901Z,9.10
2023-01-23T11:55:34.967Z,6.00
2023-01-23T11:58:18.197Z,8.50
2023-01-23T12:00:51.915Z,9.13
2023-01-23T12:03:18.972Z,8.02
2023-01-23T12:05:56.869Z,7.60
2023-01-23T12:08:39.737Z,9.05
2023-01-23T12:11:13.117Z,7.47
2023-01-23T12:13:56.572Z,7.75
2023-01-23T12:16:57.480Z,7.57
2023-01-23T12:19:41.131Z,6.40
2023-01-23T12:22:29.228Z,9.30
2023-01-23T12:25:15.547Z,6.63
2023-01-23T12:27:44.585Z,9.13
2023-01-23T12:30:20.453Z,9.10
2023-01-23T12:32:50.325Z,8.07
2023-01-23T12:35:45.265Z,7.60
2023-01-23T12:38:23.445Z,9.23
2023-01-23T12:41:08.586Z,8.35
2023-01-23T12:43:40.984Z,7.72
2023-01-23T12:46:16.095Z,8.73
2023-01-23T12:48:51.227Z,8.50
2023-01-23T12:51:38.774Z,7.38
2023-01-23T12:54:10.920Z,7.55
2023-01-23T12:56:39.898Z,7.80
2023-01-23T12:59:22.910Z,8.60
2023-01-23T13:02:23.532Z,8.10
2023-01-23T13:05:03.494Z,7.68
2023-01-23T13:08:08.440Z,9.00
2023-01-23T13:11:12.763Z,5.63
2023-01-23T13:13:40.605Z,8.43
2023-01-23T13:16:16.263Z,9.80
2023-01-23T13:19:15.056Z,8.30
2023-01-23T13:22:27.698Z,8.32
2023-01-23T13:25:17.044Z,8.00
2023-01-23T13:27:49.333Z,8.80
2023-01-23T13:30:22.355Z,8.25
2023-01-23T13:32:51.623Z,6.90
2023-01-23T13:35:40.202Z,8.57
2023-01-23T13:38:22.437Z,9.35
2023-01-23T13:41:14.498Z,7.57
2023-01-23T13:43:42.848Z,9.77
2023-01-23T14:21:52.339Z,11.88
2023-01-23T14:24:29.270Z,9.38
2023-01-23T14:27:07.471Z,15.35
2023-01-23T14:29:35.067Z,10.95
2023-01-23T14:32:02.393Z,9.55
2023-01-23T14:34:29.334Z,8.80
2023-01-23T14:37:08.470Z,13.23
2023-01-23T14:39:35.731Z,11.02
2023-01-23T14:42:04.504Z,10.60
2023-01-23T14:44:41.797Z,11.23
2023-01-23T14:47:34.271Z,9.15
2023-01-23T14:50:02.762Z,8.95
2023-01-23T14:52:30.849Z,10.70
2023-01-23T14:55:07.213Z,9.65
2023-01-23T14:57:35.589Z,8.90
2023-01-23T15:00:03.531Z,9.82
2023-01-23T15:02:33.660Z,8.60
2023-01-23T15:05:27.483Z,10.75
2023-01-23T15:08:03.948Z,10.98
2023-01-23T15:10:34.889Z,10.82
2023-01-23T15:13:10.130Z,10.38
2023-01-23T15:15:37.090Z,10.48
2023-01-23T15:18:07.846Z,9.65
2023-01-23T15:20:42.907Z,9.13
2023-01-23T15:23:19.029Z,12.88
2023-01-23T15:25:54.550Z,9.90
2023-01-23T15:29:01.319Z,8.35
2023-01-23T15:33:57.028Z,9.30
2023-01-23T15:36:28.931Z,9.43
2023-01-23T15:38:57.846Z,11.57
2023-01-23T15:41:44.680Z,10.77
2023-01-23T15:44:14.845Z,9.38
2023-01-23T15:49:23.579Z,9.57
2023-01-23T15:51:51.811Z,9.80
2023-01-23T15:54:22.257Z,9.48
2023-01-23T15:59:23.716Z,11.07
2023-01-23T16:01:50.544Z,11.40
2023-01-23T16:04:18.424Z,10.18
2023-01-23T16:06:45.547Z,8.70
2023-01-23T16:09:20.310Z,10.27
2023-01-23T16:11:47.328Z,10.68
2023-01-23T16:14:18.255Z,11.43
2023-01-23T16:16:45.852Z,11.23
2023-01-23T16:19:12.871Z,11.02
2023-01-23T16:21:42.244Z,10.18
2023-01-23T16:24:18.371Z,9.52
2023-01-23T16:26:45.476Z,10.82
2023-01-23T16:29:38.641Z,10.02
2023-01-23T16:32:06.196Z,9.85
2023-01-23T16:34:33.025Z,10.88
2023-01-23T16:37:00.991Z,10.48
2023-01-23T16:39:30.336Z,9.90
2023-01-23T16:41:57.279Z,11.32
2023-01-23T16:44:24.454Z,11.18
2023-01-23T16:46:52.836Z,10.88
2023-01-23T16:49:20.853Z,9.93
2023-01-23T16:51:55.645Z,15.20
2023-01-23T16:54:22.593Z,10.15
2023-01-23T16:56:53.459Z,9.95
2023-01-23T16:59:35.770Z,12.15
2023-01-23T17:02:17.170Z,10.50
2023-01-23T17:04:43.988Z,9.73
2023-01-23T17:07:17.933Z,9.38
2023-01-23T17:09:45.775Z,10.95
2023-01-23T17:12:15.719Z,9.68
2023-01-23T17:14:44.251Z,10.43
2023-01-23T17:17:14.652Z,13.18
2023-01-23T17:19:42.052Z,10.10
2023-01-23T17:22:18.519Z,11.63
2023-01-23T17:24:45.345Z,10.85
2023-01-23T17:27:12.459Z,10.07
2023-01-23T17:29:39.543Z,12.63
2023-01-23T17:32:06.780Z,12.88
2023-01-23T17:34:48.663Z,14.63
2023-01-23T17:37:20.779Z,12.27
2023-01-23T17:39:47.695Z,11.77
2023-01-23T17:42:15.213Z,10.43
2023-01-23T17:44:42.320Z,17.10
2023-01-23T17:47:12.837Z,13.30
2023-01-23T17:49:39.981Z,13.13
2023-01-23T17:52:10.217Z,12.43
2023-01-23T17:54:37.656Z,13.52
2023-01-23T17:57:05.081Z,10.32
2023-01-23T17:59:32.150Z,11.65
2023-01-23T18:01:59.532Z,11.57
2023-01-23T18:04:26.580Z,10.07
2023-01-23T18:06:53.699Z,12.20
2023-01-23T18:09:21.841Z,12.27
2023-01-23T18:11:52.663Z,11.90
2023-01-23T18:14:31.228Z,16.27
2023-01-23T18:16:58.650Z,12.77
2023-01-23T18:19:27.555Z,10.70
2023-01-23T18:21:56.179Z,11.23
2023-01-23T18:24:32.900Z,11.15
2023-01-23T18:27:20.430Z,9.25
2023-01-23T18:30:15.560Z,13.73
2023-01-23T18:32:51.763Z,9.85
2023-01-23T18:35:52.888Z,10.32
2023-01-23T18:38:53.637Z,11.32
2023-01-23T18:41:26.119Z,12.07
2023-01-23T18:44:01.972Z,11.57
2023-01-23T18:46:29.396Z,12.65
2023-01-23T18:48:56.654Z,12.55
2023-01-23T18:51:35.871Z,10.60
2023-01-23T18:54:09.876Z,10.02
2023-01-23T18:57:13.205Z,11.65
2023-01-23T18:59:50.360Z,10.70
2023-01-23T19:02:26.436Z,11.82
2023-01-23T19:05:11.542Z,10.77
2023-01-23T19:07:39.149Z,11.07
2023-01-23T19:10:07.608Z,11.10
2023-01-23T19:12:40.372Z,11.20
2023-01-23T19:15:29.540Z,11.85
2023-01-23T19:18:15.283Z,9.40
2023-01-23T19:20:44.569Z,10.35
2023-01-23T19:23:29.860Z,10.65
2023-01-23T19:25:57.207Z,11.75
2023-01-23T19:28:24.555Z,14.13
2023-01-23T19:30:51.998Z,9.55
2023-01-23T19:33:20.454Z,8.93
2023-01-23T19:35:48.314Z,11.13
2023-01-23T19:38:15.578Z,10.43
2023-01-23T19:40:43.343Z,10.63
2023-01-23T19:43:16.380Z,12.40
2023-01-23T19:45:44.808Z,13.05
2023-01-23T19:48:12.967Z,13.93
2023-01-23T19:50:40.660Z,10.85
2023-01-23T19:53:07.878Z,14.63
2023-01-23T19:55:37.126Z,12.63
2023-01-23T19:58:04.139Z,12.00
2023-01-23T20:00:32.881Z,12.63
2023-01-23T20:03:00.051Z,11.60
2023-01-23T20:05:27.253Z,12.07
2023-01-23T20:07:54.635Z,12.63
2023-01-23T20:10:22.200Z,13.82
2023-01-23T20:12:55.193Z,9.57
2023-01-23T20:15:24.941Z,13.02
2023-01-23T20:17:53.004Z,13.00
2023-01-23T20:20:20.784Z,13.77
2023-01-23T20:22:48.065Z,11.45
2023-01-23T20:25:16.327Z,12.80
2023-01-23T20:27:44.003Z,10.93
2023-01-23T20:30:17.997Z,12.32
2023-01-23T20:32:44.989Z,13.18
2023-01-23T20:35:12.085Z,12.65
2023-01-23T20:37:39.170Z,14.13
2023-01-23T20:40:08.897Z,14.95
2023-01-23T20:42:36.277Z,13.13
2023-01-23T20:45:04.203Z,13.40
2023-01-23T20:47:31.332Z,14.02
2023-01-23T20:49:58.843Z,13.45
2023-01-23T20:52:43.999Z,12.48
2023-01-23T20:55:10.688Z,12.55
2023-01-23T20:57:56.330Z,14.23
2023-01-23T21:00:23.442Z,12.80
2023-01-23T21:02:50.437Z,12.48
2023-01-23T21:05:17.336Z,12.73
2023-01-23T21:07:44.264Z,12.27
2023-01-23T21:10:11.628Z,11.95
2023-01-23T21:12:38.589Z,12.50
2023-01-23T21:15:05.799Z,14.93
2023-01-23T21:17:32.719Z,13.38
2023-01-23T21:19:59.631Z,14.02
2023-01-23T21:22:26.394Z,15.68
2023-01-23T21:24:53.870Z,11.20
2023-01-23T21:27:23.477Z,12.88
2023-01-23T21:29:51.668Z,15.73
2023-01-23T21:32:18.621Z,12.60
2023-01-23T21:34:45.663Z,15.00
2023-01-23T21:37:12.999Z,17.10
2023-01-23T21:39:40.314Z,15.50
2023-01-23T21:42:07.115Z,15.60
2023-01-23T21:44:35.720Z,15.85
2023-01-23T21:47:03.175Z,17.80
2023-01-23T21:49:31.498Z,13.05
2023-01-23T21:51:58.493Z,15.95
2023-01-23T21:54:25.538Z,18.92
2023-01-23T21:56:52.393Z,16.58
2023-01-23T21:59:19.393Z,14.57
2023-01-23T22:01:47.137Z,16.88
2023-01-23T22:04:18.506Z,15.20
2023-01-23T22:06:46.533Z,15.88
2023-01-23T22:09:18.652Z,18.52
2023-01-23T22:11:46.455Z,18.83
2023-01-23T22:14:13.644Z,18.70
2023-01-23T22:16:48.425Z,15.65
2023-01-23T22:19:18.823Z,15.40
2023-01-23T22:21:46.653Z,16.67
2023-01-23T22:24:14.767Z,17.33
2023-01-23T22:26:42.037Z,11.27
2023-01-23T22:29:08.965Z,12.13
2023-01-23T22:31:35.964Z,15.70
2023-01-23T22:34:03.217Z,17.10
2023-01-23T22:36:30.545Z,15.85
2023-01-23T22:38:57.737Z,12.20
2023-01-23T22:41:24.876Z,12.07
2023-01-23T22:43:55.672Z,12.68
2023-01-23T22:46:23.238Z,16.00
2023-01-23T22:48:50.196Z,11.02
2023-01-23T22:51:20.844Z,16.05
2023-01-23T22:56:15.106Z,10.38
2023-01-23T22:58:49.193Z,16.55
2023-01-23T23:01:16.868Z,12.30
2023-01-23T23:03:44.724Z,12.32
2023-01-23T23:06:15.375Z,11.98
2023-01-23T23:11:16.747Z,14.63
2023-01-23T23:13:43.624Z,15.63
2023-01-23T23:16:25.049Z,11.68
2023-01-23T23:18:53.859Z,13.30
2023-01-23T23:21:23.287Z,12.20
2023-01-23T23:23:50.473Z,13.38
2023-01-23T23:26:17.292Z,14.65
2023-01-23T23:28:44.305Z,14.55
2023-01-23T23:31:11.304Z,17.75
2023-01-23T23:33:38.325Z,13.52
2023-01-23T23:36:05.835Z,10.93
2023-01-23T23:38:32.836Z,13.88
2023-01-23T23:41:05.026Z,15.75
2023-01-23T23:43:32.086Z,12.18
2023-01-23T23:46:01.502Z,15.90
2023-01-23T23:48:29.497Z,14.05
2023-01-23T23:50:56.692Z,11.70
2023-01-23T23:53:24.107Z,14.02
2023-01-23T23:55:51.239Z,16.58
2023-01-23T23:58:18.322Z,18.40
